createdAt,value
2023-03-23T16:00:21.065Z,2.97
2023-03-23T16:03:28.249Z,3.00
2023-03-23T16:06:33.367Z,3.10
2023-03-23T16:09:34.996Z,3.03
2023-03-23T16:12:40.303Z,3.07
2023-03-23T16:15:42.269Z,2.75
2023-03-23T16:18:44.352Z,3.13
2023-03-23T16:21:46.026Z,2.92
2023-03-23T16:24:47.689Z,3.70
2023-03-23T16:27:52.316Z,3.33
2023-03-23T16:30:57.458Z,3.55
2023-03-23T16:33:59.104Z,3.80
2023-03-23T16:37:01.163Z,3.90
2023-03-23T16:40:04.336Z,4.53
2023-03-23T16:43:09.168Z,4.10
2023-03-23T16:46:13.249Z,3.80
2023-03-23T16:49:14.897Z,3.85
2023-03-23T16:52:16.539Z,3.78
2023-03-23T16:55:18.287Z,3.72
2023-03-23T16:58:20.427Z,3.20
2023-03-23T17:01:22.163Z,3.55
2023-03-23T17:04:23.919Z,5.47
2023-03-23T17:07:25.685Z,4.10
2023-03-23T17:10:28.504Z,3.70
2023-03-23T17:13:30.465Z,4.97
2023-03-23T17:16:32.901Z,4.60
2023-03-23T17:19:35.986Z,3.80
2023-03-23T17:22:39.123Z,3.40
2023-03-23T17:25:41.038Z,6.00
2023-03-23T17:28:42.782Z,4.40
2023-03-23T17:31:44.808Z,3.80
2023-03-23T17:34:46.456Z,4.15
2023-03-23T17:37:48.190Z,3.10
2023-03-23T17:40:59.530Z,3.20
2023-03-23T17:44:01.208Z,3.70
2023-03-23T17:47:03.310Z,3.05
2023-03-23T17:50:11.508Z,3.78
2023-03-23T17:53:15.054Z,3.67
2023-03-23T17:56:16.699Z,3.30
2023-03-23T17:59:19.347Z,3.30
2023-03-23T18:02:21.170Z,3.20
2023-03-23T18:05:24.564Z,3.40
2023-03-23T18:08:26.880Z,3.40
2023-03-23T18:11:28.660Z,3.50
2023-03-23T18:14:30.272Z,3.17
2023-03-23T18:17:32.222Z,3.25
2023-03-23T18:20:34.046Z,3.33
2023-03-23T18:23:46.162Z,3.53
2023-03-23T18:26:51.586Z,3.92
2023-03-23T18:29:53.274Z,3.73
2023-03-23T18:32:54.918Z,4.10
2023-03-23T18:35:58.963Z,4.68
2023-03-23T18:39:00.993Z,4.18
2023-03-23T18:42:02.598Z,4.22
2023-03-23T18:45:04.582Z,4.33
2023-03-23T18:48:07.089Z,4.50
2023-03-23T18:51:09.516Z,4.07
2023-03-23T18:54:11.400Z,4.10
2023-03-23T18:57:13.188Z,4.10
2023-03-23T19:00:15.339Z,4.20
2023-03-23T19:03:17.658Z,4.30
2023-03-23T19:06:22.671Z,4.20
2023-03-23T19:09:24.490Z,4.70
2023-03-23T19:12:26.146Z,4.40
2023-03-23T19:15:27.854Z,4.50
2023-03-23T19:18:29.572Z,4.55
2023-03-23T19:21:32.182Z,4.45
2023-03-23T19:24:34.625Z,4.53
2023-03-23T19:27:53.217Z,4.22
2023-03-23T19:30:59.098Z,4.83
2023-03-23T19:34:01.186Z,5.10
2023-03-23T19:37:05.799Z,5.50
2023-03-23T19:40:31.305Z,5.30
2023-03-23T19:43:34.122Z,5.57
2023-03-23T19:46:36.210Z,5.57
2023-03-23T19:49:38.938Z,5.50
2023-03-23T19:52:42.177Z,6.28
2023-03-23T19:55:43.813Z,6.20
2023-03-23T19:58:46.155Z,5.88
2023-03-23T20:01:48.210Z,5.60
2023-03-23T20:04:49.971Z,5.50
2023-03-23T20:07:52.101Z,5.55
2023-03-23T20:11:02.185Z,5.40
2023-03-23T20:14:03.960Z,5.45
2023-03-23T20:17:09.585Z,5.73
2023-03-23T20:20:11.986Z,5.53
2023-03-23T20:23:13.982Z,5.18
2023-03-23T20:26:19.621Z,5.32
2023-03-23T20:29:21.379Z,5.35
2023-03-23T20:32:23.182Z,5.17
2023-03-23T20:35:24.877Z,5.30
2023-03-23T20:38:27.616Z,5.30
2023-03-23T20:41:29.540Z,5.60
2023-03-23T20:44:34.778Z,5.45
2023-03-23T20:47:37.417Z,5.17
2023-03-23T20:50:39.738Z,5.47
2023-03-23T20:53:41.376Z,5.10
2023-03-23T20:56:43.770Z,5.30
2023-03-23T20:59:45.762Z,4.88
2023-03-23T21:02:49.792Z,5.57
2023-03-23T21:05:51.755Z,6.40
2023-03-23T21:08:53.348Z,5.30
2023-03-23T21:11:55.415Z,5.18
2023-03-23T21:14:57.005Z,5.50
2023-03-23T21:17:58.653Z,5.20
2023-03-23T21:21:01.282Z,5.25
2023-03-23T21:24:03.463Z,5.50
2023-03-23T21:27:05.396Z,5.63
2023-03-23T21:30:08.260Z,6.18
2023-03-23T21:33:09.864Z,6.40
2023-03-23T21:36:11.997Z,6.07
2023-03-23T21:39:15.442Z,5.95
2023-03-23T21:42:17.137Z,6.97
2023-03-23T21:45:21.057Z,7.22
2023-03-23T21:48:29.689Z,6.63
2023-03-23T21:51:35.491Z,7.15
2023-03-23T21:54:37.139Z,7.70
2023-03-23T21:57:40.201Z,7.20
2023-03-23T22:00:42.094Z,7.50
2023-03-23T22:03:44.413Z,7.53
2023-03-23T22:06:46.243Z,7.43
2023-03-23T22:09:47.898Z,7.97
2023-03-23T22:12:52.626Z,7.85
2023-03-23T22:15:58.532Z,7.90
2023-03-23T22:19:02.165Z,8.60
2023-03-23T22:22:06.912Z,8.18
2023-03-23T22:25:08.841Z,8.43
2023-03-23T22:28:10.732Z,8.30
2023-03-23T22:31:17.656Z,8.68
2023-03-23T22:34:20.343Z,8.13
2023-03-23T22:37:21.981Z,8.52
2023-03-23T22:40:24.033Z,8.75
2023-03-23T22:43:26.975Z,9.02
2023-03-23T22:46:28.811Z,8.75
2023-03-23T22:49:30.456Z,7.97
2023-03-23T22:52:32.710Z,8.68
2023-03-23T22:55:34.346Z,8.80
2023-03-23T22:58:36.158Z,8.50
2023-03-23T23:01:38.111Z,8.30
2023-03-23T23:04:39.849Z,8.00
2023-03-23T23:07:41.592Z,8.10
2023-03-23T23:10:46.343Z,8.48
2023-03-23T23:13:49.194Z,8.55
2023-03-23T23:16:51.821Z,8.27
2023-03-23T23:19:53.516Z,8.03
2023-03-23T23:22:55.143Z,8.65
2023-03-23T23:25:57.238Z,8.50
2023-03-23T23:28:58.981Z,7.90
2023-03-23T23:32:02.633Z,8.48
2023-03-23T23:35:05.937Z,8.10
2023-03-23T23:38:09.737Z,8.05
2023-03-23T23:41:11.661Z,8.15
2023-03-23T23:44:13.404Z,8.52
2023-03-23T23:47:15.130Z,7.88
2023-03-23T23:50:17.191Z,7.67
2023-03-23T23:53:22.869Z,8.68
2023-03-23T23:56:25.704Z,7.20
2023-03-23T23:59:28.928Z,7.78
